sensor_id;sensor_type;location;lat;lon;timestamp;P1;durP1;ratioP1;P2;durP2;ratioP2
54191;SDS011;40101;53.002;6.488;2022-07-17T00:00:47;5.00;;;1.73;;
54191;SDS011;40101;53.002;6.488;2022-07-17T00:03:13;4.38;;;1.45;;
54191;SDS011;40101;53.002;6.488;2022-07-17T00:05:40;3.83;;;1.58;;
54191;SDS011;40101;53.002;6.488;2022-07-17T00:08:06;4.25;;;1.70;;
54191;SDS011;40101;53.002;6.488;2022-07-17T00:10:33;4.85;;;1.60;;
54191;SDS011;40101;53.002;6.488;2022-07-17T00:13:05;3.85;;;1.50;;
54191;SDS011;40101;53.002;6.488;2022-07-17T00:15:31;4.50;;;1.50;;
54191;SDS011;40101;53.002;6.488;2022-07-17T00:17:57;3.38;;;1.45;;
54191;SDS011;40101;53.002;6.488;2022-07-17T00:20:24;5.38;;;1.88;;
54191;SDS011;40101;53.002;6.488;2022-07-17T00:22:51;5.55;;;1.73;;
54191;SDS011;40101;53.002;6.488;2022-07-17T00:25:17;2.63;;;1.40;;
54191;SDS011;40101;53.002;6.488;2022-07-17T00:27:43;4.90;;;1.67;;
54191;SDS011;40101;53.002;6.488;2022-07-17T00:30:09;6.88;;;1.35;;
54191;SDS011;40101;53.002;6.488;2022-07-17T00:32:35;2.58;;;1.10;;
54191;SDS011;40101;53.002;6.488;2022-07-17T00:35:01;2.90;;;1.75;;
54191;SDS011;40101;53.002;6.488;2022-07-17T00:37:27;6.07;;;1.77;;
54191;SDS011;40101;53.002;6.488;2022-07-17T00:39:52;2.80;;;1.55;;
54191;SDS011;40101;53.002;6.488;2022-07-17T00:42:19;3.83;;;1.20;;
54191;SDS011;40101;53.002;6.488;2022-07-17T00:44:45;3.25;;;2.13;;
54191;SDS011;40101;53.002;6.488;2022-07-17T00:47:14;2.00;;;1.48;;
54191;SDS011;40101;53.002;6.488;2022-07-17T00:49:42;3.40;;;1.63;;
54191;SDS011;40101;53.002;6.488;2022-07-17T00:52:08;4.72;;;1.48;;
54191;SDS011;40101;53.002;6.488;2022-07-17T00:54:39;4.82;;;2.38;;
54191;SDS011;40101;53.002;6.488;2022-07-17T00:57:06;2.40;;;1.38;;
54191;SDS011;40101;53.002;6.488;2022-07-17T00:59:34;3.72;;;1.73;;
54191;SDS011;40101;53.002;6.488;2022-07-17T01:02:02;5.05;;;1.67;;
54191;SDS011;40101;53.002;6.488;2022-07-17T01:04:30;4.70;;;1.80;;
54191;SDS011;40101;53.002;6.488;2022-07-17T01:06:57;6.10;;;1.70;;
54191;SDS011;40101;53.002;6.488;2022-07-17T01:09:23;8.52;;;1.77;;
54191;SDS011;40101;53.002;6.488;2022-07-17T01:11:49;2.70;;;1.70;;
54191;SDS011;40101;53.002;6.488;2022-07-17T01:14:16;2.72;;;1.48;;
54191;SDS011;40101;53.002;6.488;2022-07-17T01:16:42;3.30;;;1.13;;
54191;SDS011;40101;53.002;6.488;2022-07-17T01:19:08;7.05;;;1.73;;
54191;SDS011;40101;53.002;6.488;2022-07-17T01:21:39;2.05;;;1.48;;
54191;SDS011;40101;53.002;6.488;2022-07-17T01:24:09;3.72;;;1.35;;
54191;SDS011;40101;53.002;6.488;2022-07-17T01:26:36;4.75;;;1.80;;
54191;SDS011;40101;53.002;6.488;2022-07-17T01:29:02;4.40;;;1.83;;
54191;SDS011;40101;53.002;6.488;2022-07-17T01:31:28;4.78;;;1.73;;
54191;SDS011;40101;53.002;6.488;2022-07-17T01:33:54;4.03;;;1.67;;
54191;SDS011;40101;53.002;6.488;2022-07-17T01:36:22;5.20;;;1.90;;
54191;SDS011;40101;53.002;6.488;2022-07-17T01:38:49;4.78;;;1.65;;
54191;SDS011;40101;53.002;6.488;2022-07-17T01:41:14;3.50;;;1.50;;
54191;SDS011;40101;53.002;6.488;2022-07-17T01:43:40;5.47;;;1.48;;
54191;SDS011;40101;53.002;6.488;2022-07-17T01:46:06;2.60;;;1.90;;
54191;SDS011;40101;53.002;6.488;2022-07-17T01:48:31;5.15;;;1.98;;
54191;SDS011;40101;53.002;6.488;2022-07-17T01:50:57;4.88;;;2.08;;
54191;SDS011;40101;53.002;6.488;2022-07-17T01:53:23;4.15;;;2.20;;
54191;SDS011;40101;53.002;6.488;2022-07-17T01:55:49;5.63;;;1.70;;
54191;SDS011;40101;53.002;6.488;2022-07-17T01:58:15;2.78;;;2.03;;
54191;SDS011;40101;53.002;6.488;2022-07-17T02:00:41;8.50;;;2.60;;
54191;SDS011;40101;53.002;6.488;2022-07-17T02:03:07;2.70;;;1.50;;
54191;SDS011;40101;53.002;6.488;2022-07-17T02:05:33;1.40;;;1.30;;
54191;SDS011;40101;53.002;6.488;2022-07-17T02:07:58;2.38;;;1.20;;
54191;SDS011;40101;53.002;6.488;2022-07-17T02:10:25;3.60;;;2.00;;
54191;SDS011;40101;53.002;6.488;2022-07-17T02:12:51;3.45;;;1.67;;
54191;SDS011;40101;53.002;6.488;2022-07-17T02:15:16;2.92;;;1.73;;
54191;SDS011;40101;53.002;6.488;2022-07-17T02:17:42;2.35;;;1.83;;
54191;SDS011;40101;53.002;6.488;2022-07-17T02:20:08;3.72;;;1.63;;
54191;SDS011;40101;53.002;6.488;2022-07-17T02:22:36;2.00;;;1.33;;
54191;SDS011;40101;53.002;6.488;2022-07-17T02:25:02;3.28;;;1.83;;
54191;SDS011;40101;53.002;6.488;2022-07-17T02:27:30;2.17;;;1.67;;
54191;SDS011;40101;53.002;6.488;2022-07-17T02:29:56;4.28;;;1.73;;
54191;SDS011;40101;53.002;6.488;2022-07-17T02:32:22;4.90;;;2.10;;
54191;SDS011;40101;53.002;6.488;2022-07-17T02:34:48;4.13;;;1.90;;
54191;SDS011;40101;53.002;6.488;2022-07-17T02:37:14;3.65;;;2.03;;
54191;SDS011;40101;53.002;6.488;2022-07-17T02:39:40;2.35;;;1.45;;
54191;SDS011;40101;53.002;6.488;2022-07-17T02:42:18;4.53;;;1.70;;
54191;SDS011;40101;53.002;6.488;2022-07-17T02:44:48;3.45;;;2.20;;
54191;SDS011;40101;53.002;6.488;2022-07-17T02:47:20;2.63;;;2.20;;
54191;SDS011;40101;53.002;6.488;2022-07-17T02:49:47;2.90;;;2.17;;
54191;SDS011;40101;53.002;6.488;2022-07-17T02:52:13;2.03;;;1.73;;
54191;SDS011;40101;53.002;6.488;2022-07-17T02:54:39;3.03;;;1.85;;
54191;SDS011;40101;53.002;6.488;2022-07-17T02:57:04;4.43;;;2.58;;
54191;SDS011;40101;53.002;6.488;2022-07-17T02:59:30;4.22;;;2.40;;
54191;SDS011;40101;53.002;6.488;2022-07-17T03:01:56;3.03;;;1.92;;
54191;SDS011;40101;53.002;6.488;2022-07-17T03:04:21;4.85;;;2.47;;
54191;SDS011;40101;53.002;6.488;2022-07-17T03:06:47;5.78;;;2.30;;
54191;SDS011;40101;53.002;6.488;2022-07-17T03:09:13;7.45;;;3.28;;
54191;SDS011;40101;53.002;6.488;2022-07-17T03:11:38;10.45;;;2.63;;
54191;SDS011;40101;53.002;6.488;2022-07-17T03:14:04;6.47;;;2.10;;
54191;SDS011;40101;53.002;6.488;2022-07-17T03:16:29;7.38;;;2.42;;
54191;SDS011;40101;53.002;6.488;2022-07-17T03:18:55;4.47;;;2.75;;
54191;SDS011;40101;53.002;6.488;2022-07-17T03:21:21;4.97;;;3.10;;
54191;SDS011;40101;53.002;6.488;2022-07-17T03:23:46;7.95;;;2.60;;
54191;SDS011;40101;53.002;6.488;2022-07-17T03:26:12;8.63;;;2.97;;
54191;SDS011;40101;53.002;6.488;2022-07-17T03:28:38;4.60;;;2.97;;
54191;SDS011;40101;53.002;6.488;2022-07-17T03:31:03;4.13;;;2.10;;
54191;SDS011;40101;53.002;6.488;2022-07-17T03:33:29;12.98;;;3.60;;
54191;SDS011;40101;53.002;6.488;2022-07-17T03:35:55;4.68;;;2.50;;
54191;SDS011;40101;53.002;6.488;2022-07-17T03:38:21;3.92;;;1.90;;
54191;SDS011;40101;53.002;6.488;2022-07-17T03:40:47;3.40;;;1.88;;
54191;SDS011;40101;53.002;6.488;2022-07-17T03:43:12;4.32;;;2.60;;
54191;SDS011;40101;53.002;6.488;2022-07-17T03:45:39;3.58;;;2.20;;
54191;SDS011;40101;53.002;6.488;2022-07-17T03:48:04;6.22;;;2.35;;
54191;SDS011;40101;53.002;6.488;2022-07-17T03:50:30;7.30;;;2.58;;
54191;SDS011;40101;53.002;6.488;2022-07-17T03:52:56;10.73;;;2.10;;
54191;SDS011;40101;53.002;6.488;2022-07-17T03:55:22;4.28;;;2.20;;
54191;SDS011;40101;53.002;6.488;2022-07-17T03:57:47;2.03;;;1.67;;
54191;SDS011;40101;53.002;6.488;2022-07-17T04:00:13;4.35;;;2.00;;
54191;SDS011;40101;53.002;6.488;2022-07-17T04:02:40;5.90;;;2.72;;
54191;SDS011;40101;53.002;6.488;2022-07-17T04:05:06;5.05;;;2.60;;
54191;SDS011;40101;53.002;6.488;2022-07-17T04:07:35;5.20;;;2.05;;
54191;SDS011;40101;53.002;6.488;2022-07-17T04:10:02;11.23;;;2.58;;
54191;SDS011;40101;53.002;6.488;2022-07-17T04:12:29;2.88;;;1.60;;
54191;SDS011;40101;53.002;6.488;2022-07-17T04:14:55;4.20;;;2.05;;
54191;SDS011;40101;53.002;6.488;2022-07-17T04:17:20;7.05;;;2.50;;
54191;SDS011;40101;53.002;6.488;2022-07-17T04:19:46;4.40;;;2.45;;
54191;SDS011;40101;53.002;6.488;2022-07-17T04:22:13;6.60;;;2.10;;
54191;SDS011;40101;53.002;6.488;2022-07-17T04:24:38;3.28;;;2.03;;
54191;SDS011;40101;53.002;6.488;2022-07-17T04:27:04;5.78;;;2.05;;
54191;SDS011;40101;53.002;6.488;2022-07-17T04:29:30;4.32;;;2.00;;
54191;SDS011;40101;53.002;6.488;2022-07-17T04:31:56;5.00;;;2.42;;
54191;SDS011;40101;53.002;6.488;2022-07-17T04:34:22;5.25;;;2.38;;
54191;SDS011;40101;53.002;6.488;2022-07-17T04:36:47;3.03;;;2.58;;
54191;SDS011;40101;53.002;6.488;2022-07-17T04:39:13;3.25;;;2.40;;
54191;SDS011;40101;53.002;6.488;2022-07-17T04:41:39;2.88;;;2.13;;
54191;SDS011;40101;53.002;6.488;2022-07-17T04:44:04;4.10;;;2.83;;
54191;SDS011;40101;53.002;6.488;2022-07-17T04:46:30;4.18;;;2.47;;
54191;SDS011;40101;53.002;6.488;2022-07-17T04:48:56;4.65;;;2.10;;
54191;SDS011;40101;53.002;6.488;2022-07-17T04:51:22;3.83;;;2.20;;
54191;SDS011;40101;53.002;6.488;2022-07-17T04:53:47;5.60;;;2.97;;
54191;SDS011;40101;53.002;6.488;2022-07-17T04:56:13;8.10;;;2.78;;
54191;SDS011;40101;53.002;6.488;2022-07-17T04:58:39;4.30;;;2.65;;
54191;SDS011;40101;53.002;6.488;2022-07-17T05:01:04;8.88;;;3.08;;
54191;SDS011;40101;53.002;6.488;2022-07-17T05:03:30;7.07;;;3.33;;
54191;SDS011;40101;53.002;6.488;2022-07-17T05:05:56;5.45;;;2.22;;
54191;SDS011;40101;53.002;6.488;2022-07-17T05:08:21;9.88;;;3.30;;
54191;SDS011;40101;53.002;6.488;2022-07-17T05:10:47;6.30;;;2.95;;
54191;SDS011;40101;53.002;6.488;2022-07-17T05:13:13;6.60;;;2.70;;
54191;SDS011;40101;53.002;6.488;2022-07-17T05:15:38;7.05;;;2.90;;
54191;SDS011;40101;53.002;6.488;2022-07-17T05:18:04;8.73;;;2.78;;
54191;SDS011;40101;53.002;6.488;2022-07-17T05:20:30;10.35;;;2.92;;
54191;SDS011;40101;53.002;6.488;2022-07-17T05:22:55;7.18;;;2.50;;
54191;SDS011;40101;53.002;6.488;2022-07-17T05:25:21;11.32;;;3.28;;
54191;SDS011;40101;53.002;6.488;2022-07-17T05:27:47;5.15;;;2.42;;
54191;SDS011;40101;53.002;6.488;2022-07-17T05:30:13;9.52;;;3.30;;
54191;SDS011;40101;53.002;6.488;2022-07-17T05:32:39;8.57;;;2.97;;
54191;SDS011;40101;53.002;6.488;2022-07-17T05:35:04;9.65;;;3.40;;
54191;SDS011;40101;53.002;6.488;2022-07-17T05:37:30;4.18;;;2.53;;
54191;SDS011;40101;53.002;6.488;2022-07-17T05:39:56;7.22;;;3.13;;
54191;SDS011;40101;53.002;6.488;2022-07-17T05:42:21;6.60;;;2.85;;
54191;SDS011;40101;53.002;6.488;2022-07-17T05:44:47;8.30;;;3.03;;
54191;SDS011;40101;53.002;6.488;2022-07-17T05:47:16;8.35;;;2.80;;
54191;SDS011;40101;53.002;6.488;2022-07-17T05:49:41;7.35;;;3.00;;
54191;SDS011;40101;53.002;6.488;2022-07-17T05:52:07;7.80;;;3.03;;
54191;SDS011;40101;53.002;6.488;2022-07-17T05:54:33;7.85;;;2.70;;
54191;SDS011;40101;53.002;6.488;2022-07-17T05:56:59;5.57;;;2.63;;
54191;SDS011;40101;53.002;6.488;2022-07-17T05:59:26;4.05;;;2.42;;
54191;SDS011;40101;53.002;6.488;2022-07-17T06:01:51;9.55;;;2.55;;
54191;SDS011;40101;53.002;6.488;2022-07-17T06:04:17;5.22;;;2.42;;
54191;SDS011;40101;53.002;6.488;2022-07-17T06:06:43;7.45;;;1.98;;
54191;SDS011;40101;53.002;6.488;2022-07-17T06:09:09;3.13;;;1.77;;
54191;SDS011;40101;53.002;6.488;2022-07-17T06:11:34;5.13;;;2.58;;
54191;SDS011;40101;53.002;6.488;2022-07-17T06:14:00;7.95;;;2.30;;
54191;SDS011;40101;53.002;6.488;2022-07-17T06:16:26;4.53;;;2.03;;
54191;SDS011;40101;53.002;6.488;2022-07-17T06:18:52;4.85;;;1.92;;
54191;SDS011;40101;53.002;6.488;2022-07-17T06:21:18;4.00;;;1.60;;
54191;SDS011;40101;53.002;6.488;2022-07-17T06:23:44;2.75;;;1.50;;
54191;SDS011;40101;53.002;6.488;2022-07-17T06:26:09;5.68;;;2.28;;
54191;SDS011;40101;53.002;6.488;2022-07-17T06:28:35;2.38;;;1.00;;
54191;SDS011;40101;53.002;6.488;2022-07-17T06:31:01;3.58;;;1.27;;
54191;SDS011;40101;53.002;6.488;2022-07-17T06:33:26;4.07;;;1.50;;
54191;SDS011;40101;53.002;6.488;2022-07-17T06:35:52;2.45;;;0.90;;
54191;SDS011;40101;53.002;6.488;2022-07-17T06:38:18;5.95;;;1.58;;
54191;SDS011;40101;53.002;6.488;2022-07-17T06:40:43;4.10;;;1.30;;
54191;SDS011;40101;53.002;6.488;2022-07-17T06:43:09;2.70;;;0.75;;
54191;SDS011;40101;53.002;6.488;2022-07-17T06:45:35;2.45;;;0.95;;
54191;SDS011;40101;53.002;6.488;2022-07-17T06:48:01;2.88;;;0.80;;
54191;SDS011;40101;53.002;6.488;2022-07-17T06:50:27;4.05;;;1.02;;
54191;SDS011;40101;53.002;6.488;2022-07-17T06:52:53;3.75;;;0.90;;
54191;SDS011;40101;53.002;6.488;2022-07-17T06:55:19;4.22;;;0.95;;
54191;SDS011;40101;53.002;6.488;2022-07-17T06:57:44;5.40;;;1.17;;
54191;SDS011;40101;53.002;6.488;2022-07-17T07:00:10;4.93;;;0.80;;
54191;SDS011;40101;53.002;6.488;2022-07-17T07:02:37;2.63;;;0.75;;
54191;SDS011;40101;53.002;6.488;2022-07-17T07:05:03;6.20;;;0.95;;
54191;SDS011;40101;53.002;6.488;2022-07-17T07:07:29;2.55;;;0.60;;
54191;SDS011;40101;53.002;6.488;2022-07-17T07:09:56;4.15;;;1.25;;
54191;SDS011;40101;53.002;6.488;2022-07-17T07:12:21;4.68;;;0.90;;
54191;SDS011;40101;53.002;6.488;2022-07-17T07:14:48;4.30;;;0.88;;
54191;SDS011;40101;53.002;6.488;2022-07-17T07:17:14;3.33;;;0.80;;
54191;SDS011;40101;53.002;6.488;2022-07-17T07:19:40;4.82;;;0.75;;
54191;SDS011;40101;53.002;6.488;2022-07-17T07:22:05;2.45;;;0.90;;
54191;SDS011;40101;53.002;6.488;2022-07-17T07:24:31;4.22;;;1.35;;
54191;SDS011;40101;53.002;6.488;2022-07-17T07:27:00;4.57;;;1.08;;
54191;SDS011;40101;53.002;6.488;2022-07-17T07:29:26;3.35;;;0.80;;
54191;SDS011;40101;53.002;6.488;2022-07-17T07:31:51;4.60;;;1.15;;
54191;SDS011;40101;53.002;6.488;2022-07-17T07:34:17;2.30;;;0.80;;
54191;SDS011;40101;53.002;6.488;2022-07-17T07:36:42;7.15;;;0.90;;
54191;SDS011;40101;53.002;6.488;2022-07-17T07:39:08;5.43;;;1.33;;
54191;SDS011;40101;53.002;6.488;2022-07-17T07:41:34;5.25;;;1.25;;
54191;SDS011;40101;53.002;6.488;2022-07-17T07:44:00;3.28;;;0.70;;
54191;SDS011;40101;53.002;6.488;2022-07-17T07:46:26;4.95;;;1.58;;
54191;SDS011;40101;53.002;6.488;2022-07-17T07:48:52;5.38;;;1.75;;
54191;SDS011;40101;53.002;6.488;2022-07-17T07:51:18;6.18;;;1.35;;
54191;SDS011;40101;53.002;6.488;2022-07-17T07:53:44;4.30;;;1.42;;
54191;SDS011;40101;53.002;6.488;2022-07-17T07:56:09;4.05;;;0.65;;
54191;SDS011;40101;53.002;6.488;2022-07-17T07:58:35;5.75;;;1.67;;
54191;SDS011;40101;53.002;6.488;2022-07-17T08:01:01;4.55;;;0.85;;
54191;SDS011;40101;53.002;6.488;2022-07-17T08:03:27;4.18;;;1.05;;
54191;SDS011;40101;53.002;6.488;2022-07-17T08:05:52;5.28;;;1.08;;
54191;SDS011;40101;53.002;6.488;2022-07-17T08:08:18;2.35;;;0.82;;
54191;SDS011;40101;53.002;6.488;2022-07-17T08:10:44;9.57;;;1.17;;
54191;SDS011;40101;53.002;6.488;2022-07-17T08:13:10;4.40;;;0.95;;
54191;SDS011;40101;53.002;6.488;2022-07-17T08:15:35;5.10;;;0.90;;
54191;SDS011;40101;53.002;6.488;2022-07-17T08:18:01;4.50;;;0.80;;
54191;SDS011;40101;53.002;6.488;2022-07-17T08:20:27;3.42;;;0.80;;
54191;SDS011;40101;53.002;6.488;2022-07-17T08:22:53;3.90;;;0.80;;
54191;SDS011;40101;53.002;6.488;2022-07-17T08:25:19;3.15;;;0.90;;
54191;SDS011;40101;53.002;6.488;2022-07-17T08:27:45;5.68;;;0.90;;
54191;SDS011;40101;53.002;6.488;2022-07-17T08:30:12;2.67;;;0.95;;
54191;SDS011;40101;53.002;6.488;2022-07-17T08:32:38;2.95;;;0.70;;
54191;SDS011;40101;53.002;6.488;2022-07-17T08:35:05;3.50;;;0.73;;
54191;SDS011;40101;53.002;6.488;2022-07-17T08:37:48;1.67;;;0.77;;
54191;SDS011;40101;53.002;6.488;2022-07-17T08:40:22;4.30;;;0.98;;
54191;SDS011;40101;53.002;6.488;2022-07-17T08:42:51;3.53;;;1.00;;
54191;SDS011;40101;53.002;6.488;2022-07-17T08:45:17;2.45;;;0.88;;
54191;SDS011;40101;53.002;6.488;2022-07-17T08:47:43;2.92;;;0.77;;
54191;SDS011;40101;53.002;6.488;2022-07-17T08:50:10;4.40;;;1.02;;
54191;SDS011;40101;53.002;6.488;2022-07-17T08:52:37;3.55;;;0.70;;
54191;SDS011;40101;53.002;6.488;2022-07-17T08:55:11;4.45;;;0.90;;
54191;SDS011;40101;53.002;6.488;2022-07-17T08:57:42;1.40;;;0.63;;
54191;SDS011;40101;53.002;6.488;2022-07-17T09:00:16;2.40;;;0.50;;
54191;SDS011;40101;53.002;6.488;2022-07-17T09:05:33;2.90;;;0.90;;
54191;SDS011;40101;53.002;6.488;2022-07-17T09:08:00;2.45;;;0.68;;
54191;SDS011;40101;53.002;6.488;2022-07-17T09:10:31;4.28;;;0.75;;
54191;SDS011;40101;53.002;6.488;2022-07-17T09:12:58;2.50;;;0.90;;
54191;SDS011;40101;53.002;6.488;2022-07-17T09:15:25;3.47;;;0.95;;
54191;SDS011;40101;53.002;6.488;2022-07-17T09:17:53;2.53;;;0.77;;
54191;SDS011;40101;53.002;6.488;2022-07-17T09:20:20;2.17;;;0.45;;
54191;SDS011;40101;53.002;6.488;2022-07-17T09:23:00;4.45;;;0.90;;
54191;SDS011;40101;53.002;6.488;2022-07-17T09:25:42;3.53;;;0.77;;
54191;SDS011;40101;53.002;6.488;2022-07-17T09:28:10;2.50;;;0.80;;
54191;SDS011;40101;53.002;6.488;2022-07-17T09:30:39;1.95;;;0.52;;
54191;SDS011;40101;53.002;6.488;2022-07-17T09:33:07;5.18;;;0.80;;
54191;SDS011;40101;53.002;6.488;2022-07-17T09:35:48;2.45;;;0.98;;
54191;SDS011;40101;53.002;6.488;2022-07-17T09:38:32;2.15;;;0.70;;
54191;SDS011;40101;53.002;6.488;2022-07-17T09:41:03;1.73;;;0.50;;
54191;SDS011;40101;53.002;6.488;2022-07-17T09:43:54;2.53;;;0.90;;
54191;SDS011;40101;53.002;6.488;2022-07-17T09:46:33;1.30;;;0.55;;
54191;SDS011;40101;53.002;6.488;2022-07-17T09:49:02;2.50;;;0.70;;
54191;SDS011;40101;53.002;6.488;2022-07-17T09:51:36;2.38;;;0.75;;
54191;SDS011;40101;53.002;6.488;2022-07-17T09:54:04;3.00;;;0.68;;
54191;SDS011;40101;53.002;6.488;2022-07-17T09:56:33;2.95;;;0.73;;
54191;SDS011;40101;53.002;6.488;2022-07-17T09:59:04;1.48;;;0.60;;
54191;SDS011;40101;53.002;6.488;2022-07-17T10:01:35;4.38;;;0.70;;
54191;SDS011;40101;53.002;6.488;2022-07-17T10:04:03;3.47;;;0.85;;
54191;SDS011;40101;53.002;6.488;2022-07-17T10:06:29;2.75;;;0.68;;
54191;SDS011;40101;53.002;6.488;2022-07-17T10:08:56;2.42;;;0.90;;
54191;SDS011;40101;53.002;6.488;2022-07-17T10:11:22;2.65;;;1.23;;
54191;SDS011;40101;53.002;6.488;2022-07-17T10:13:50;1.55;;;0.60;;
54191;SDS011;40101;53.002;6.488;2022-07-17T10:16:27;2.30;;;0.82;;
54191;SDS011;40101;53.002;6.488;2022-07-17T10:19:33;1.35;;;0.50;;
54191;SDS011;40101;53.002;6.488;2022-07-17T10:22:09;4.45;;;0.95;;
54191;SDS011;40101;53.002;6.488;2022-07-17T10:24:44;3.08;;;0.88;;
54191;SDS011;40101;53.002;6.488;2022-07-17T10:27:24;2.92;;;0.80;;
54191;SDS011;40101;53.002;6.488;2022-07-17T10:30:00;2.92;;;0.80;;
54191;SDS011;40101;53.002;6.488;2022-07-17T10:32:34;2.97;;;0.70;;
54191;SDS011;40101;53.002;6.488;2022-07-17T10:40:07;3.92;;;0.80;;
54191;SDS011;40101;53.002;6.488;2022-07-17T10:45:31;3.47;;;0.98;;
54191;SDS011;40101;53.002;6.488;2022-07-17T10:48:14;2.80;;;0.80;;
54191;SDS011;40101;53.002;6.488;2022-07-17T10:50:49;2.35;;;0.98;;
54191;SDS011;40101;53.002;6.488;2022-07-17T10:53:18;4.63;;;1.00;;
54191;SDS011;40101;53.002;6.488;2022-07-17T10:55:46;3.90;;;0.90;;
54191;SDS011;40101;53.002;6.488;2022-07-17T11:03:39;4.35;;;1.02;;
54191;SDS011;40101;53.002;6.488;2022-07-17T11:06:21;3.80;;;1.20;;
54191;SDS011;40101;53.002;6.488;2022-07-17T11:11:43;2.10;;;0.98;;
54191;SDS011;40101;53.002;6.488;2022-07-17T11:16:51;3.75;;;0.80;;
54191;SDS011;40101;53.002;6.488;2022-07-17T11:19:22;2.78;;;1.00;;
54191;SDS011;40101;53.002;6.488;2022-07-17T11:21:51;4.30;;;1.05;;
54191;SDS011;40101;53.002;6.488;2022-07-17T11:24:17;2.92;;;0.90;;
54191;SDS011;40101;53.002;6.488;2022-07-17T11:26:43;3.20;;;1.13;;
54191;SDS011;40101;53.002;6.488;2022-07-17T11:29:10;1.52;;;0.90;;
54191;SDS011;40101;53.002;6.488;2022-07-17T11:31:36;2.67;;;0.90;;
54191;SDS011;40101;53.002;6.488;2022-07-17T11:34:05;2.28;;;0.98;;
54191;SDS011;40101;53.002;6.488;2022-07-17T11:40:01;3.75;;;1.10;;
54191;SDS011;40101;53.002;6.488;2022-07-17T11:42:28;2.10;;;0.95;;
54191;SDS011;40101;53.002;6.488;2022-07-17T11:45:00;3.28;;;0.85;;
54191;SDS011;40101;53.002;6.488;2022-07-17T11:47:26;1.75;;;1.08;;
54191;SDS011;40101;53.002;6.488;2022-07-17T11:50:15;5.50;;;1.35;;
54191;SDS011;40101;53.002;6.488;2022-07-17T11:52:42;2.13;;;1.20;;
54191;SDS011;40101;53.002;6.488;2022-07-17T11:58:11;2.35;;;1.77;;
54191;SDS011;40101;53.002;6.488;2022-07-17T12:00:37;3.83;;;0.90;;
54191;SDS011;40101;53.002;6.488;2022-07-17T12:03:05;3.25;;;0.90;;
54191;SDS011;40101;53.002;6.488;2022-07-17T12:05:34;5.18;;;2.30;;
54191;SDS011;40101;53.002;6.488;2022-07-17T12:08:17;3.50;;;1.23;;
54191;SDS011;40101;53.002;6.488;2022-07-17T12:14:29;3.25;;;1.00;;
54191;SDS011;40101;53.002;6.488;2022-07-17T12:16:32;4.82;;;1.42;;
54191;SDS011;40101;53.002;6.488;2022-07-17T12:24:32;3.15;;;1.10;;
54191;SDS011;40101;53.002;6.488;2022-07-17T12:27:03;5.20;;;1.38;;
54191;SDS011;40101;53.002;6.488;2022-07-17T12:29:30;2.58;;;1.20;;
54191;SDS011;40101;53.002;6.488;2022-07-17T12:32:06;4.97;;;1.33;;
54191;SDS011;40101;53.002;6.488;2022-07-17T12:34:38;2.17;;;1.20;;
54191;SDS011;40101;53.002;6.488;2022-07-17T12:37:10;3.53;;;1.33;;
54191;SDS011;40101;53.002;6.488;2022-07-17T12:39:48;3.13;;;1.27;;
54191;SDS011;40101;53.002;6.488;2022-07-17T12:42:14;1.40;;;0.95;;
54191;SDS011;40101;53.002;6.488;2022-07-17T12:44:41;2.47;;;1.20;;
54191;SDS011;40101;53.002;6.488;2022-07-17T12:47:07;4.38;;;1.73;;
54191;SDS011;40101;53.002;6.488;2022-07-17T12:49:33;6.22;;;1.73;;
54191;SDS011;40101;53.002;6.488;2022-07-17T12:51:59;2.90;;;1.50;;
54191;SDS011;40101;53.002;6.488;2022-07-17T12:54:25;3.08;;;1.50;;
54191;SDS011;40101;53.002;6.488;2022-07-17T12:56:51;3.25;;;1.33;;
54191;SDS011;40101;53.002;6.488;2022-07-17T12:59:17;4.20;;;1.75;;
54191;SDS011;40101;53.002;6.488;2022-07-17T13:01:43;3.85;;;1.92;;
54191;SDS011;40101;53.002;6.488;2022-07-17T13:04:10;3.80;;;1.90;;
54191;SDS011;40101;53.002;6.488;2022-07-17T13:06:37;2.65;;;1.73;;
54191;SDS011;40101;53.002;6.488;2022-07-17T13:09:02;3.03;;;1.90;;
54191;SDS011;40101;53.002;6.488;2022-07-17T13:11:28;3.70;;;2.05;;
54191;SDS011;40101;53.002;6.488;2022-07-17T13:13:54;3.03;;;1.90;;
54191;SDS011;40101;53.002;6.488;2022-07-17T13:16:20;4.55;;;1.90;;
54191;SDS011;40101;53.002;6.488;2022-07-17T13:18:46;3.13;;;1.70;;
54191;SDS011;40101;53.002;6.488;2022-07-17T13:21:12;2.90;;;2.00;;
54191;SDS011;40101;53.002;6.488;2022-07-17T13:23:38;4.47;;;2.20;;
54191;SDS011;40101;53.002;6.488;2022-07-17T13:26:04;3.50;;;2.00;;
54191;SDS011;40101;53.002;6.488;2022-07-17T13:28:30;3.45;;;1.85;;
54191;SDS011;40101;53.002;6.488;2022-07-17T13:30:55;2.92;;;1.90;;
54191;SDS011;40101;53.002;6.488;2022-07-17T13:33:22;5.28;;;1.75;;
54191;SDS011;40101;53.002;6.488;2022-07-17T13:35:48;3.70;;;1.73;;
54191;SDS011;40101;53.002;6.488;2022-07-17T13:38:14;5.20;;;2.88;;
54191;SDS011;40101;53.002;6.488;2022-07-17T13:40:40;2.65;;;2.13;;
54191;SDS011;40101;53.002;6.488;2022-07-17T13:43:06;4.07;;;2.10;;
54191;SDS011;40101;53.002;6.488;2022-07-17T13:45:32;3.45;;;2.65;;
54191;SDS011;40101;53.002;6.488;2022-07-17T13:47:58;3.30;;;1.88;;
54191;SDS011;40101;53.002;6.488;2022-07-17T13:50:24;6.72;;;2.75;;
54191;SDS011;40101;53.002;6.488;2022-07-17T13:52:49;4.38;;;2.80;;
54191;SDS011;40101;53.002;6.488;2022-07-17T13:55:15;3.78;;;2.10;;
54191;SDS011;40101;53.002;6.488;2022-07-17T13:57:41;4.18;;;2.25;;
54191;SDS011;40101;53.002;6.488;2022-07-17T14:00:07;6.07;;;2.20;;
54191;SDS011;40101;53.002;6.488;2022-07-17T14:02:35;4.00;;;2.38;;
54191;SDS011;40101;53.002;6.488;2022-07-17T14:05:05;2.78;;;1.92;;
54191;SDS011;40101;53.002;6.488;2022-07-17T14:07:32;5.22;;;2.20;;
54191;SDS011;40101;53.002;6.488;2022-07-17T14:09:58;4.65;;;2.25;;
54191;SDS011;40101;53.002;6.488;2022-07-17T14:12:24;5.97;;;2.10;;
54191;SDS011;40101;53.002;6.488;2022-07-17T14:14:50;4.18;;;2.30;;
54191;SDS011;40101;53.002;6.488;2022-07-17T14:17:15;3.28;;;1.75;;
54191;SDS011;40101;53.002;6.488;2022-07-17T14:19:42;3.25;;;1.85;;
54191;SDS011;40101;53.002;6.488;2022-07-17T14:22:09;5.05;;;2.17;;
54191;SDS011;40101;53.002;6.488;2022-07-17T14:24:35;3.83;;;2.08;;
54191;SDS011;40101;53.002;6.488;2022-07-17T14:27:00;3.38;;;2.08;;
54191;SDS011;40101;53.002;6.488;2022-07-17T14:29:26;3.03;;;2.15;;
54191;SDS011;40101;53.002;6.488;2022-07-17T14:31:51;3.35;;;2.00;;
54191;SDS011;40101;53.002;6.488;2022-07-17T14:34:17;4.68;;;2.33;;
54191;SDS011;40101;53.002;6.488;2022-07-17T14:36:44;4.65;;;2.65;;
54191;SDS011;40101;53.002;6.488;2022-07-17T14:39:10;4.53;;;2.70;;
54191;SDS011;40101;53.002;6.488;2022-07-17T14:41:35;3.63;;;2.55;;
54191;SDS011;40101;53.002;6.488;2022-07-17T14:44:01;6.13;;;2.45;;
54191;SDS011;40101;53.002;6.488;2022-07-17T14:46:27;4.07;;;2.58;;
54191;SDS011;40101;53.002;6.488;2022-07-17T14:48:52;3.80;;;2.15;;
54191;SDS011;40101;53.002;6.488;2022-07-17T14:51:18;5.93;;;2.10;;
54191;SDS011;40101;53.002;6.488;2022-07-17T14:53:43;3.95;;;2.40;;
54191;SDS011;40101;53.002;6.488;2022-07-17T14:56:09;3.03;;;2.08;;
54191;SDS011;40101;53.002;6.488;2022-07-17T14:58:35;4.50;;;2.38;;
54191;SDS011;40101;53.002;6.488;2022-07-17T15:01:00;3.15;;;2.10;;
54191;SDS011;40101;53.002;6.488;2022-07-17T15:03:26;6.95;;;2.83;;
54191;SDS011;40101;53.002;6.488;2022-07-17T15:05:52;3.58;;;2.88;;
54191;SDS011;40101;53.002;6.488;2022-07-17T15:08:17;2.95;;;2.63;;
54191;SDS011;40101;53.002;6.488;2022-07-17T15:10:43;4.10;;;2.70;;
54191;SDS011;40101;53.002;6.488;2022-07-17T15:13:09;3.03;;;2.00;;
54191;SDS011;40101;53.002;6.488;2022-07-17T15:15:34;4.60;;;2.35;;
54191;SDS011;40101;53.002;6.488;2022-07-17T15:18:00;3.88;;;2.72;;
54191;SDS011;40101;53.002;6.488;2022-07-17T15:20:26;3.28;;;2.33;;
54191;SDS011;40101;53.002;6.488;2022-07-17T15:22:51;2.42;;;1.85;;
54191;SDS011;40101;53.002;6.488;2022-07-17T15:25:17;3.15;;;2.00;;